createdAt,value
2019-04-27T00:01:13.786Z,32.43
2019-04-27T00:03:56.678Z,39.20
2019-04-27T00:06:27.049Z,32.70
2019-04-27T00:09:00.314Z,37.80
2019-04-27T00:11:37.443Z,36.47
2019-04-27T00:14:04.250Z,36.57
2019-04-27T00:16:36.324Z,35.13
2019-04-27T00:19:23.302Z,33.47
2019-04-27T00:21:56.460Z,32.60
2019-04-27T00:24:25.161Z,35.43
2019-04-27T00:26:54.065Z,35.13
2019-04-27T00:29:23.657Z,33.53
2019-04-27T00:31:53.427Z,34.80
2019-04-27T00:34:26.459Z,34.50
2019-04-27T00:36:56.923Z,35.90
2019-04-27T00:39:27.293Z,38.07
2019-04-27T00:41:57.071Z,32.37
2019-04-27T00:44:26.307Z,38.20
2019-04-27T00:46:55.134Z,33.87
2019-04-27T00:49:23.982Z,35.60
2019-04-27T00:51:53.663Z,34.07
2019-04-27T00:54:23.775Z,37.80
2019-04-27T00:56:54.230Z,33.70
2019-04-27T00:59:36.709Z,35.77
2019-04-27T01:02:16.323Z,37.43
2019-04-27T01:04:44.995Z,36.73
2019-04-27T01:07:14.347Z,38.73
2019-04-27T01:09:43.201Z,32.90
2019-04-27T01:12:13.528Z,38.73
2019-04-27T01:14:42.792Z,34.13
2019-04-27T01:17:12.691Z,39.80
2019-04-27T01:19:41.428Z,37.10
2019-04-27T01:22:10.451Z,38.73
2019-04-27T01:24:39.246Z,37.27
2019-04-27T01:27:21.901Z,39.40
2019-04-27T01:29:51.778Z,40.47
2019-04-27T01:32:20.774Z,33.43
2019-04-27T01:34:53.328Z,33.87
2019-04-27T01:37:24.394Z,32.73
2019-04-27T01:39:53.032Z,34.03
2019-04-27T01:42:21.629Z,31.80
2019-04-27T01:45:00.533Z,31.97
2019-04-27T01:47:29.631Z,32.73
2019-04-27T01:50:00.091Z,27.07
2019-04-27T01:52:35.389Z,24.13
2019-04-27T01:55:05.149Z,24.17
2019-04-27T01:57:48.723Z,27.60
2019-04-27T02:00:33.722Z,27.40
2019-04-27T02:03:10.215Z,27.90
2019-04-27T02:06:00.817Z,29.90
2019-04-27T02:08:40.292Z,25.87
2019-04-27T02:11:10.999Z,30.00
2019-04-27T02:13:42.050Z,30.20
2019-04-27T02:16:14.376Z,30.50
2019-04-27T02:18:48.882Z,28.77
2019-04-27T02:21:22.274Z,32.17
2019-04-27T02:23:57.259Z,30.93
2019-04-27T02:26:30.473Z,30.13
2019-04-27T02:29:06.743Z,33.90
2019-04-27T02:31:53.565Z,40.33
2019-04-27T02:34:23.970Z,39.57
2019-04-27T02:36:52.673Z,37.47
2019-04-27T02:39:24.256Z,37.40
2019-04-27T02:41:55.660Z,38.67
2019-04-27T02:44:31.412Z,41.30
2019-04-27T02:47:04.452Z,40.40
2019-04-27T02:49:33.163Z,40.37
2019-04-27T02:52:09.513Z,43.13
2019-04-27T02:54:40.008Z,40.20
2019-04-27T02:57:10.101Z,38.70
2019-04-27T02:59:39.960Z,36.43
2019-04-27T03:02:26.471Z,37.03
2019-04-27T03:04:55.126Z,39.97
2019-04-27T03:07:24.553Z,41.17
2019-04-27T03:09:53.406Z,41.63
2019-04-27T03:12:23.785Z,36.80
2019-04-27T03:14:56.794Z,35.07
2019-04-27T03:17:36.333Z,35.30
2019-04-27T03:20:20.650Z,32.37
2019-04-27T03:22:57.024Z,36.60
2019-04-27T03:25:31.864Z,28.83
2019-04-27T03:28:00.290Z,22.00
2019-04-27T03:30:35.463Z,22.90
2019-04-27T03:33:03.315Z,22.53
2019-04-27T03:35:36.115Z,20.00
2019-04-27T03:38:02.612Z,19.20
2019-04-27T03:40:31.341Z,20.53
2019-04-27T03:43:04.652Z,17.60
2019-04-27T03:45:33.410Z,18.03
2019-04-27T03:48:03.002Z,24.80
2019-04-27T03:50:40.330Z,26.93
2019-04-27T03:53:23.226Z,29.10
2019-04-27T03:56:10.143Z,27.37
2019-04-27T03:58:43.842Z,26.47
2019-04-27T04:01:12.562Z,26.50
2019-04-27T04:03:41.284Z,22.70
2019-04-27T04:06:10.787Z,21.37
2019-04-27T04:08:40.252Z,22.83
2019-04-27T04:11:10.615Z,25.60
2019-04-27T04:13:46.509Z,20.30
2019-04-27T04:16:16.749Z,20.70
2019-04-27T04:18:49.893Z,20.40
2019-04-27T04:21:19.444Z,19.67
2019-04-27T04:23:49.486Z,18.80
2019-04-27T04:26:19.197Z,16.43
2019-04-27T04:28:50.020Z,19.67
2019-04-27T04:31:20.912Z,22.07
2019-04-27T04:33:49.306Z,15.77
2019-04-27T04:36:20.163Z,18.00
2019-04-27T04:38:50.423Z,16.87
2019-04-27T04:41:26.339Z,16.17
2019-04-27T04:43:56.649Z,15.13
2019-04-27T04:46:29.784Z,17.03
2019-04-27T04:49:00.238Z,15.90
2019-04-27T04:51:30.332Z,15.90
2019-04-27T04:53:59.720Z,15.53
2019-04-27T04:56:29.279Z,14.77
2019-04-27T04:59:00.052Z,15.53
2019-04-27T05:01:29.901Z,16.67
2019-04-27T05:03:59.078Z,15.07
2019-04-27T05:06:29.219Z,15.63
2019-04-27T05:08:59.516Z,16.63
2019-04-27T05:11:29.754Z,13.03
2019-04-27T05:14:01.275Z,15.07
2019-04-27T05:16:29.227Z,18.67
2019-04-27T05:18:59.367Z,16.10
2019-04-27T05:21:32.509Z,18.10
2019-04-27T05:24:01.398Z,17.23
2019-04-27T05:26:30.212Z,18.50
2019-04-27T05:28:59.327Z,20.10
2019-04-27T05:31:29.923Z,15.20
2019-04-27T05:33:59.378Z,18.53
2019-04-27T05:36:29.643Z,16.90
2019-04-27T05:38:59.746Z,18.37
2019-04-27T05:41:31.144Z,16.23
2019-04-27T05:44:03.211Z,20.40
2019-04-27T05:46:35.752Z,20.37
2019-04-27T05:49:06.304Z,18.13
2019-04-27T05:51:37.136Z,18.27
2019-04-27T05:54:05.482Z,21.27
2019-04-27T05:56:34.128Z,19.43
2019-04-27T05:59:02.822Z,20.30
2019-04-27T06:01:31.532Z,19.03
2019-04-27T06:04:00.184Z,21.00
2019-04-27T06:06:29.520Z,19.60
2019-04-27T06:09:00.332Z,18.30
2019-04-27T06:11:29.011Z,19.63
2019-04-27T06:13:59.251Z,17.43
2019-04-27T06:16:29.499Z,19.83
2019-04-27T06:18:59.438Z,18.03
2019-04-27T06:21:29.496Z,21.23
2019-04-27T06:23:58.892Z,21.57
2019-04-27T06:26:29.905Z,17.33
2019-04-27T06:28:59.400Z,19.10
2019-04-27T06:31:29.903Z,17.90
2019-04-27T06:33:59.713Z,19.23
2019-04-27T06:36:28.818Z,18.17
2019-04-27T06:38:58.906Z,19.73
2019-04-27T06:41:29.482Z,19.83
2019-04-27T06:43:59.209Z,20.43
2019-04-27T06:46:28.781Z,18.70
2019-04-27T06:48:59.429Z,19.50
2019-04-27T06:51:40.109Z,16.77
2019-04-27T06:54:09.313Z,16.10
2019-04-27T06:56:45.400Z,20.07
2019-04-27T06:59:14.387Z,16.20
2019-04-27T07:01:43.073Z,17.50
2019-04-27T07:04:12.212Z,17.97
2019-04-27T07:06:53.342Z,15.73
2019-04-27T07:09:15.923Z,16.27
2019-04-27T07:12:03.923Z,15.30
2019-04-27T07:14:33.819Z,17.40
2019-04-27T07:17:02.921Z,15.40
2019-04-27T07:19:33.056Z,14.67
2019-04-27T07:22:01.823Z,15.33
2019-04-27T07:24:30.468Z,15.10
2019-04-27T07:27:00.774Z,13.67
2019-04-27T07:29:32.901Z,15.80
2019-04-27T07:32:05.994Z,14.20
2019-04-27T07:34:38.792Z,14.10
2019-04-27T07:37:07.551Z,14.40
2019-04-27T07:39:39.215Z,14.40
2019-04-27T07:42:08.709Z,12.63
2019-04-27T07:44:56.975Z,13.57
2019-04-27T07:47:27.370Z,11.12
2019-04-27T07:49:56.209Z,12.98
2019-04-27T07:52:28.698Z,15.72
2019-04-27T07:54:58.794Z,10.40
2019-04-27T07:57:28.958Z,11.12
2019-04-27T08:00:01.982Z,12.23
2019-04-27T08:02:30.705Z,10.50
2019-04-27T08:04:59.653Z,10.38
2019-04-27T08:07:29.284Z,8.68
2019-04-27T08:10:01.657Z,10.78
2019-04-27T08:12:30.182Z,9.18
2019-04-27T08:15:01.661Z,9.63
2019-04-27T08:17:32.476Z,10.25
2019-04-27T08:20:01.080Z,8.90
2019-04-27T08:22:31.938Z,8.90
2019-04-27T08:25:00.643Z,9.85
2019-04-27T08:27:31.126Z,10.28
2019-04-27T08:30:09.473Z,9.48
2019-04-27T08:32:42.543Z,8.05
2019-04-27T08:35:12.628Z,8.38
2019-04-27T08:37:46.246Z,8.28
2019-04-27T08:40:22.130Z,7.53
2019-04-27T08:42:55.908Z,7.50
2019-04-27T08:45:25.028Z,9.25
2019-04-27T08:47:53.998Z,7.70
2019-04-27T08:50:22.691Z,5.45
2019-04-27T08:52:51.399Z,7.00
2019-04-27T08:55:30.837Z,6.50
2019-04-27T08:58:01.976Z,10.32
2019-04-27T09:00:35.300Z,6.87
2019-04-27T09:03:04.215Z,7.33
2019-04-27T09:05:36.154Z,8.33
2019-04-27T09:08:21.412Z,6.62
2019-04-27T09:10:59.174Z,8.05
2019-04-27T09:13:45.578Z,5.55
2019-04-27T09:16:35.264Z,5.55
2019-04-27T09:19:11.816Z,5.30
2019-04-27T09:22:12.466Z,5.62
2019-04-27T09:24:32.362Z,5.30
2019-04-27T09:27:01.850Z,6.15
2019-04-27T09:29:31.232Z,6.72
2019-04-27T09:32:01.843Z,7.28
2019-04-27T09:34:32.790Z,19.70
2019-04-27T09:37:01.684Z,4.70
2019-04-27T09:39:30.707Z,5.12
2019-04-27T09:42:00.886Z,8.43
2019-04-27T09:44:36.912Z,5.05
2019-04-27T09:47:08.836Z,4.33
2019-04-27T09:49:38.482Z,6.25
2019-04-27T09:52:08.457Z,5.62
2019-04-27T09:54:44.381Z,3.17
2019-04-27T09:57:16.039Z,5.40
2019-04-27T09:59:49.903Z,7.37
2019-04-27T10:02:19.899Z,3.33
2019-04-27T10:04:54.181Z,13.98
2019-04-27T10:07:26.926Z,5.22
2019-04-27T10:09:57.146Z,10.03
2019-04-27T10:12:27.480Z,5.53
2019-04-27T10:15:02.193Z,18.90
2019-04-27T10:17:30.899Z,5.78
2019-04-27T10:20:00.147Z,5.12
2019-04-27T10:22:40.453Z,5.45
2019-04-27T10:25:00.727Z,4.37
2019-04-27T10:27:33.325Z,3.35
2019-04-27T10:30:05.807Z,3.90
2019-04-27T10:32:37.490Z,5.35
2019-04-27T10:35:08.938Z,10.78
2019-04-27T10:37:37.690Z,7.78
2019-04-27T10:40:06.704Z,11.35
2019-04-27T10:42:37.593Z,9.25
2019-04-27T10:45:08.410Z,23.67
2019-04-27T10:47:37.043Z,21.93
2019-04-27T10:50:09.539Z,5.30
2019-04-27T10:52:52.424Z,10.30
2019-04-27T10:55:10.559Z,13.10
2019-04-27T10:57:48.882Z,12.73
2019-04-27T11:00:21.233Z,8.88
2019-04-27T11:02:49.989Z,3.20
2019-04-27T11:05:22.850Z,7.67
2019-04-27T11:07:52.733Z,5.00
2019-04-27T11:10:21.504Z,4.90
2019-04-27T11:12:53.395Z,4.17
2019-04-27T11:15:26.395Z,2.53
2019-04-27T11:17:56.660Z,7.90
2019-04-27T11:20:29.703Z,3.50
2019-04-27T11:23:09.300Z,14.53
2019-04-27T11:25:36.442Z,7.93
2019-04-27T11:28:06.623Z,8.80
2019-04-27T11:30:38.531Z,14.33
2019-04-27T11:33:10.094Z,16.03
2019-04-27T11:35:40.464Z,5.27
2019-04-27T11:38:09.363Z,4.73
2019-04-27T11:40:42.260Z,9.67
2019-04-27T11:43:17.925Z,4.93
2019-04-27T11:45:46.748Z,6.67
2019-04-27T11:48:21.047Z,7.57
2019-04-27T11:50:51.266Z,5.40
2019-04-27T11:53:23.188Z,3.87
2019-04-27T11:55:50.345Z,11.77
2019-04-27T11:58:19.727Z,8.60
2019-04-27T12:00:51.243Z,5.57
2019-04-27T12:03:20.339Z,16.17
2019-04-27T12:05:59.525Z,7.70
2019-04-27T12:08:26.807Z,21.37
2019-04-27T12:13:37.994Z,2.83
2019-04-27T12:16:17.646Z,4.57
2019-04-27T12:18:48.867Z,5.27
2019-04-27T12:21:16.741Z,3.27
2019-04-27T12:23:48.416Z,3.80
2019-04-27T12:26:30.589Z,3.57
2019-04-27T12:29:01.192Z,2.27
2019-04-27T12:31:33.703Z,2.80
2019-04-27T12:34:02.842Z,2.50
2019-04-27T12:36:31.513Z,3.00
2019-04-27T12:39:03.505Z,4.33
2019-04-27T12:41:32.147Z,10.50
2019-04-27T12:44:00.889Z,11.90
2019-04-27T12:46:32.425Z,17.90
2019-04-27T12:49:01.180Z,4.80
2019-04-27T12:51:29.895Z,5.10
2019-04-27T12:54:00.221Z,19.93
2019-04-27T12:56:33.434Z,26.30
2019-04-27T12:59:04.175Z,16.83
2019-04-27T13:01:38.856Z,6.03
2019-04-27T13:04:16.809Z,11.90
2019-04-27T13:06:47.038Z,36.40
2019-04-27T13:09:17.365Z,5.13
2019-04-27T13:11:46.393Z,11.90
2019-04-27T13:14:19.238Z,5.10
2019-04-27T13:17:02.004Z,9.90
2019-04-27T13:19:20.282Z,5.57
2019-04-27T13:21:49.153Z,7.13
2019-04-27T13:24:17.791Z,9.33
2019-04-27T13:26:46.545Z,5.83
2019-04-27T13:29:18.237Z,9.30
2019-04-27T13:31:47.093Z,6.17
2019-04-27T13:34:15.936Z,18.27
2019-04-27T13:36:47.572Z,22.73
2019-04-27T13:39:16.686Z,10.80
2019-04-27T13:41:46.292Z,7.50
2019-04-27T13:44:19.796Z,8.57
2019-04-27T13:47:09.773Z,8.77
2019-04-27T13:49:56.686Z,9.60
2019-04-27T13:52:29.881Z,5.37
2019-04-27T13:54:59.705Z,12.47
2019-04-27T13:57:28.501Z,6.03
2019-04-27T13:59:57.246Z,8.70
2019-04-27T14:02:32.227Z,9.60
2019-04-27T14:04:57.763Z,8.73
2019-04-27T14:07:29.589Z,8.00
2019-04-27T14:10:01.370Z,9.67
2019-04-27T14:12:30.213Z,9.60
2019-04-27T14:15:01.416Z,8.83
2019-04-27T14:17:32.341Z,7.30
2019-04-27T14:20:01.144Z,5.70
2019-04-27T14:22:58.280Z,5.83
2019-04-27T14:25:25.846Z,10.37
2019-04-27T14:28:04.121Z,8.40
2019-04-27T14:30:32.821Z,8.57
2019-04-27T14:33:10.242Z,4.60
2019-04-27T14:35:40.323Z,5.93
2019-04-27T14:38:10.499Z,7.80
2019-04-27T14:40:41.826Z,4.73
2019-04-27T14:43:10.671Z,5.40
2019-04-27T14:45:39.746Z,6.70
2019-04-27T14:48:08.547Z,5.23
2019-04-27T14:50:40.512Z,9.10
2019-04-27T14:53:09.410Z,6.83
2019-04-27T14:55:40.161Z,8.63
2019-04-27T14:58:11.704Z,7.73
2019-04-27T15:00:40.801Z,5.77
2019-04-27T15:03:14.840Z,6.97
2019-04-27T15:05:43.681Z,5.67
2019-04-27T15:08:13.976Z,5.40
2019-04-27T15:10:46.457Z,6.40
2019-04-27T15:13:15.295Z,9.40
2019-04-27T15:15:44.251Z,4.60
2019-04-27T15:18:13.416Z,4.37
2019-04-27T15:20:46.548Z,4.40
2019-04-27T15:23:15.765Z,6.50
2019-04-27T15:25:47.432Z,6.33
2019-04-27T15:28:22.729Z,3.27
2019-04-27T15:30:53.288Z,6.60
2019-04-27T15:33:35.905Z,5.93
2019-04-27T15:36:22.855Z,8.03
2019-04-27T15:38:56.073Z,9.53
2019-04-27T15:41:45.723Z,4.37
2019-04-27T15:44:18.761Z,6.10
2019-04-27T15:46:47.984Z,6.53
2019-04-27T15:49:17.910Z,5.13
2019-04-27T15:51:50.626Z,5.57
2019-04-27T15:54:22.424Z,7.13
2019-04-27T15:56:52.390Z,4.73
2019-04-27T15:59:23.818Z,6.07
2019-04-27T16:01:57.752Z,4.53
2019-04-27T16:04:26.678Z,8.37
2019-04-27T16:07:00.535Z,8.70
2019-04-27T16:09:29.748Z,3.97
2019-04-27T16:12:12.621Z,7.63
2019-04-27T16:14:44.032Z,7.30
2019-04-27T16:17:11.888Z,6.30
2019-04-27T16:19:46.658Z,4.77
2019-04-27T16:22:12.279Z,4.77
2019-04-27T16:24:41.279Z,4.57
2019-04-27T16:27:13.225Z,6.90
2019-04-27T16:29:43.827Z,6.97
2019-04-27T16:32:14.151Z,7.17
2019-04-27T16:34:44.636Z,4.87
2019-04-27T16:37:22.449Z,7.70
2019-04-27T16:39:49.576Z,4.40
2019-04-27T16:42:18.926Z,5.47
2019-04-27T16:44:49.470Z,4.77
2019-04-27T16:47:24.531Z,8.90
2019-04-27T16:49:58.595Z,6.20
2019-04-27T16:52:31.300Z,8.00
2019-04-27T16:55:03.774Z,6.93
2019-04-27T16:57:40.031Z,5.53
2019-04-27T17:00:18.177Z,7.17
2019-04-27T17:02:59.201Z,6.27
2019-04-27T17:05:34.464Z,6.47
2019-04-27T17:08:21.419Z,4.87
2019-04-27T17:10:48.328Z,3.27
2019-04-27T17:13:35.213Z,3.30
2019-04-27T17:16:05.619Z,3.87
2019-04-27T17:18:41.078Z,6.23
2019-04-27T17:21:18.896Z,4.30
2019-04-27T17:23:45.534Z,6.43
2019-04-27T17:26:24.339Z,5.13
2019-04-27T17:29:20.492Z,5.23
2019-04-27T17:31:54.995Z,5.00
2019-04-27T17:34:34.646Z,4.73
2019-04-27T17:37:03.666Z,5.97
2019-04-27T17:39:38.555Z,5.90
2019-04-27T17:42:08.910Z,7.47
2019-04-27T17:44:39.349Z,4.60
2019-04-27T17:47:10.652Z,3.47
2019-04-27T17:49:39.498Z,4.03
2019-04-27T17:52:17.210Z,4.83
2019-04-27T17:54:47.433Z,5.50
2019-04-27T17:57:18.019Z,3.97
2019-04-27T17:59:58.392Z,4.03
2019-04-27T18:02:21.312Z,4.53
2019-04-27T18:04:52.813Z,4.10
2019-04-27T18:07:22.123Z,4.93
2019-04-27T18:09:51.380Z,3.23
2019-04-27T18:12:29.157Z,3.17
2019-04-27T18:14:59.636Z,4.17
2019-04-27T18:17:29.766Z,6.03
2019-04-27T18:20:11.802Z,3.27
2019-04-27T18:22:57.981Z,6.73
2019-04-27T18:25:30.602Z,4.60
2019-04-27T18:28:14.701Z,7.77
2019-04-27T18:30:49.197Z,6.30
2019-04-27T18:33:28.355Z,4.03
2019-04-27T18:36:05.012Z,5.07
2019-04-27T18:38:39.222Z,3.33
2019-04-27T18:41:11.966Z,11.57
2019-04-27T18:43:54.809Z,7.50
2019-04-27T18:46:24.439Z,8.87
2019-04-27T18:48:58.451Z,6.03
2019-04-27T18:51:29.696Z,7.53
2019-04-27T18:54:02.281Z,7.03
2019-04-27T18:56:33.311Z,6.27
2019-04-27T18:59:18.833Z,6.73
2019-04-27T19:01:38.941Z,5.47
2019-04-27T19:04:14.258Z,6.50
2019-04-27T19:06:46.250Z,5.37
2019-04-27T19:09:19.766Z,5.80
2019-04-27T19:11:56.027Z,6.67
2019-04-27T19:14:19.335Z,6.70
2019-04-27T19:16:49.876Z,9.37
2019-04-27T19:19:21.651Z,7.70
2019-04-27T19:21:53.594Z,6.73
2019-04-27T19:24:22.266Z,6.10
2019-04-27T19:26:52.748Z,7.50
2019-04-27T19:29:25.849Z,9.63
2019-04-27T19:32:02.038Z,6.83
2019-04-27T19:34:33.792Z,5.30
2019-04-27T19:37:08.125Z,5.97
2019-04-27T19:39:39.331Z,6.83
2019-04-27T19:42:10.870Z,5.43
2019-04-27T19:44:41.783Z,11.53
2019-04-27T19:47:12.672Z,5.77
2019-04-27T19:49:43.166Z,5.37
2019-04-27T19:52:22.659Z,6.57
2019-04-27T19:54:53.537Z,9.17
2019-04-27T19:57:34.930Z,6.53
2019-04-27T20:00:03.268Z,6.07
2019-04-27T20:02:33.269Z,8.20
2019-04-27T20:05:03.944Z,6.33
2019-04-27T20:07:33.338Z,5.53
2019-04-27T20:10:02.311Z,7.03
2019-04-27T20:12:34.351Z,6.53
2019-04-27T20:15:05.839Z,5.47
2019-04-27T20:17:36.154Z,6.37
2019-04-27T20:20:05.833Z,7.33
2019-04-27T20:22:37.350Z,6.43
2019-04-27T20:25:08.279Z,6.77
2019-04-27T20:27:46.059Z,6.93
2019-04-27T20:30:11.126Z,8.80
2019-04-27T20:32:42.975Z,6.83
2019-04-27T20:35:12.797Z,7.73
2019-04-27T20:37:41.861Z,7.20
2019-04-27T20:40:15.242Z,6.97
2019-04-27T20:42:48.259Z,6.50
2019-04-27T20:45:22.862Z,7.77
2019-04-27T20:48:01.041Z,7.83
2019-04-27T20:50:28.543Z,10.50
2019-04-27T20:53:01.583Z,6.07
2019-04-27T20:55:35.438Z,8.47
2019-04-27T20:58:11.200Z,7.37
2019-04-27T21:00:48.123Z,8.73
2019-04-27T21:03:33.289Z,11.23
2019-04-27T21:06:06.147Z,7.63
2019-04-27T21:08:38.240Z,7.10
2019-04-27T21:11:06.889Z,8.23
2019-04-27T21:13:41.657Z,8.07
2019-04-27T21:16:15.201Z,8.07
2019-04-27T21:18:47.755Z,8.20
2019-04-27T21:21:26.859Z,6.73
2019-04-27T21:23:59.383Z,6.07
2019-04-27T21:26:29.561Z,9.30
2019-04-27T21:28:59.248Z,7.43
2019-04-27T21:31:31.644Z,7.33
2019-04-27T21:34:01.713Z,6.53
2019-04-27T21:36:30.995Z,7.43
2019-04-27T21:39:24.324Z,5.43
2019-04-27T21:41:54.656Z,6.40
2019-04-27T21:44:33.597Z,7.23
2019-04-27T21:47:02.306Z,9.30
2019-04-27T21:49:32.714Z,7.97
2019-04-27T21:52:14.391Z,6.03
2019-04-27T21:54:44.756Z,5.83
2019-04-27T21:57:14.308Z,7.53
2019-04-27T21:59:43.582Z,5.87
2019-04-27T22:02:14.099Z,7.63
2019-04-27T22:04:51.815Z,4.13
2019-04-27T22:07:25.794Z,4.87
2019-04-27T22:09:57.527Z,8.93
2019-04-27T22:12:27.723Z,5.70
2019-04-27T22:14:58.600Z,7.70
2019-04-27T22:17:34.172Z,6.67
2019-04-27T22:20:05.404Z,7.57
2019-04-27T22:22:41.398Z,9.70
2019-04-27T22:25:12.157Z,5.93
2019-04-27T22:27:45.250Z,4.87
2019-04-27T22:30:15.478Z,5.03
2019-04-27T22:32:47.129Z,7.77
2019-04-27T22:35:15.882Z,3.77
2019-04-27T22:37:44.524Z,6.83
2019-04-27T22:40:34.466Z,7.63
2019-04-27T22:43:09.064Z,4.53
2019-04-27T22:45:42.222Z,5.63
2019-04-27T22:48:12.658Z,5.97
2019-04-27T22:50:44.084Z,7.33
2019-04-27T22:53:12.794Z,7.87
2019-04-27T22:55:59.500Z,9.73
2019-04-27T22:58:28.289Z,4.23
2019-04-27T23:01:07.735Z,8.93
2019-04-27T23:03:38.159Z,4.33
2019-04-27T23:06:06.898Z,5.50
2019-04-27T23:08:35.626Z,7.83
2019-04-27T23:11:07.661Z,6.53
2019-04-27T23:13:36.372Z,7.10
2019-04-27T23:16:06.768Z,6.67
2019-04-27T23:18:35.545Z,7.70
2019-04-27T23:21:04.643Z,9.27
2019-04-27T23:23:33.390Z,10.73
2019-04-27T23:26:06.507Z,10.37
2019-04-27T23:28:35.263Z,8.13
2019-04-27T23:31:08.347Z,18.30
2019-04-27T23:33:43.070Z,8.67
2019-04-27T23:36:11.947Z,9.03
2019-04-27T23:38:40.919Z,11.23
2019-04-27T23:41:09.536Z,9.93
2019-04-27T23:43:38.259Z,11.13
2019-04-27T23:46:07.271Z,13.00
2019-04-27T23:48:38.665Z,16.40
2019-04-27T23:51:27.879Z,10.13
2019-04-27T23:53:59.324Z,10.47
2019-04-27T23:56:28.043Z,10.13
2019-04-27T23:58:56.775Z,17.90
